Time;durP1;ratioP1;P1;durP2;ratioP2;P2;SDS_P1;SDS_P2;PMS_P1;PMS_P2;Temp;Humidity;BMP_temperature;BMP_pressure;BME280_temperature;BME280_humidity;BME280_pressure;Samples;Min_cycle;Max_cycle;Signal;HPM_P1;HPM_P2
2024/03/20 00:01:21;;;;;;;18.23;6.88;;;;;;;8.52;100.00;101573.13;5026071;28;20493;-75
2024/03/20 00:03:47;;;;;;;12.95;5.85;;;;;;;8.51;100.00;101570.66;5029874;28;20041;-76
2024/03/20 00:06:12;;;;;;;14.95;6.70;;;;;;;8.48;100.00;101566.56;5028975;28;20094;-75
2024/03/20 00:08:38;;;;;;;14.63;7.07;;;;;;;8.41;100.00;101567.16;5028685;28;20041;-76
2024/03/20 00:11:04;;;;;;;19.13;6.35;;;;;;;8.37;100.00;101559.63;5026344;28;20037;-75
2024/03/20 00:13:29;;;;;;;15.57;6.30;;;;;;;8.34;100.00;101564.22;5027976;28;20041;-76
2024/03/20 00:15:54;;;;;;;15.75;6.32;;;;;;;8.33;100.00;101567.78;5025133;28;20033;-76
2024/03/20 00:18:20;;;;;;;13.32;6.57;;;;;;;8.28;100.00;101562.94;5027055;28;20038;-75
2024/03/20 00:20:45;;;;;;;10.07;5.93;;;;;;;8.23;100.00;101559.94;5009760;28;20033;-75
2024/03/20 00:23:11;;;;;;;16.30;6.43;;;;;;;8.21;100.00;101560.97;5026530;28;20533;-75
2024/03/20 00:25:37;;;;;;;13.45;6.57;;;;;;;8.22;100.00;101567.81;5026659;28;20034;-75
2024/03/20 00:28:02;;;;;;;14.68;6.70;;;;;;;8.20;100.00;101555.00;5027690;28;20048;-76
2024/03/20 00:30:28;;;;;;;13.02;6.65;;;;;;;8.18;100.00;101551.72;5057852;28;20045;-74
2024/03/20 00:32:53;;;;;;;15.57;6.20;;;;;;;8.17;100.00;101556.06;5027620;28;20041;-76
2024/03/20 00:35:19;;;;;;;13.88;6.75;;;;;;;8.17;100.00;101561.25;5025099;28;20439;-76
2024/03/20 00:37:45;;;;;;;12.98;7.18;;;;;;;8.15;100.00;101550.19;5025835;28;20045;-75
2024/03/20 00:40:10;;;;;;;14.75;6.60;;;;;;;8.13;100.00;101546.09;5027275;28;20037;-75
2024/03/20 00:42:36;;;;;;;13.10;6.35;;;;;;;8.09;100.00;101542.94;5029044;28;20042;-75
2024/03/20 00:45:03;;;;;;;14.32;6.82;;;;;;;8.08;100.00;101550.78;5012726;28;20096;-75
2024/03/20 00:47:29;;;;;;;17.00;6.30;;;;;;;8.07;100.00;101549.16;5022058;28;20053;-75
2024/03/20 00:49:54;;;;;;;15.43;8.10;;;;;;;8.01;100.00;101541.91;5024798;28;20037;-75
2024/03/20 00:52:20;;;;;;;14.57;6.22;;;;;;;7.99;100.00;101544.59;5023947;28;20033;-75
2024/03/20 00:54:45;;;;;;;14.55;6.72;;;;;;;7.95;100.00;101546.59;5024438;28;20034;-75
2024/03/20 00:57:11;;;;;;;15.23;6.15;;;;;;;7.88;100.00;101542.06;5026350;28;20054;-75
2024/03/20 00:59:37;;;;;;;13.82;6.25;;;;;;;7.83;100.00;101542.41;5027477;28;20033;-75
2024/03/20 01:02:02;;;;;;;13.52;6.55;;;;;;;7.78;100.00;101544.53;5025786;28;20041;-76
2024/03/20 01:04:28;;;;;;;13.70;6.22;;;;;;;7.77;100.00;101532.56;5024428;28;20029;-75
2024/03/20 01:06:54;;;;;;;13.98;6.93;;;;;;;7.76;100.00;101539.47;5025148;28;20053;-75
2024/03/20 01:09:21;;;;;;;11.52;6.72;;;;;;;7.76;100.00;101536.91;5027491;28;20100;-75
2024/03/20 01:11:47;;;;;;;16.48;6.93;;;;;;;7.75;100.00;101532.66;5027122;28;20025;-75
2024/03/20 01:14:12;;;;;;;18.92;6.95;;;;;;;7.71;100.00;101527.88;5029187;28;20515;-76
2024/03/20 01:16:37;;;;;;;14.55;6.43;;;;;;;7.69;100.00;101528.00;5027377;28;20041;-76
2024/03/20 01:19:03;;;;;;;14.02;6.95;;;;;;;7.68;100.00;101533.25;5028915;28;20042;-76
2024/03/20 01:21:29;;;;;;;14.02;7.68;;;;;;;7.64;100.00;101527.50;5031273;28;20036;-76
2024/03/20 01:23:55;;;;;;;15.88;7.47;;;;;;;7.62;100.00;101531.16;5025627;28;20542;-75
2024/03/20 01:26:22;;;;;;;12.68;7.15;;;;;;;7.59;100.00;101527.88;5027717;28;20025;-75
2024/03/20 01:28:50;;;;;;;12.25;6.95;;;;;;;7.58;100.00;101530.56;5025824;28;20446;-76
2024/03/20 01:31:15;;;;;;;10.95;6.82;;;;;;;7.55;100.00;101528.22;5028698;28;20029;-75
2024/03/20 01:33:41;;;;;;;11.60;7.00;;;;;;;7.52;100.00;101525.91;5022346;28;20531;-76
2024/03/20 01:36:06;;;;;;;16.33;7.32;;;;;;;7.49;100.00;101532.09;5025789;28;20034;-75
2024/03/20 01:38:32;;;;;;;12.68;6.70;;;;;;;7.49;100.00;101533.88;5023552;28;20121;-76
2024/03/20 01:40:57;;;;;;;16.30;7.05;;;;;;;7.45;100.00;101533.28;5031024;28;20036;-76
2024/03/20 01:43:23;;;;;;;13.48;7.30;;;;;;;7.43;100.00;101536.91;5027168;28;20488;-75
2024/03/20 01:45:49;;;;;;;15.65;8.00;;;;;;;7.41;100.00;101534.47;5026323;28;20041;-75
2024/03/20 01:48:15;;;;;;;14.57;7.93;;;;;;;7.40;100.00;101537.97;5027377;28;20029;-76
2024/03/20 01:50:42;;;;;;;15.85;7.40;;;;;;;7.39;100.00;101526.00;5029801;28;20033;-75
2024/03/20 01:53:08;;;;;;;16.13;7.53;;;;;;;7.40;100.00;101530.22;5024404;28;20044;-76
2024/03/20 01:55:35;;;;;;;15.15;8.43;;;;;;;7.37;100.00;101533.88;5023661;28;20025;-75
2024/03/20 01:58:01;;;;;;;12.85;7.15;;;;;;;7.36;100.00;101537.38;5027935;28;20454;-76
2024/03/20 02:00:30;;;;;;;14.43;7.57;;;;;;;7.35;100.00;101533.16;5031596;28;20037;-75
2024/03/20 02:03:01;;;;;;;18.17;7.82;;;;;;;7.34;100.00;101534.09;5023805;28;20039;-75
2024/03/20 02:05:27;;;;;;;13.15;7.03;;;;;;;7.31;100.00;101528.34;5022358;28;20650;-76
2024/03/20 02:07:54;;;;;;;14.45;7.97;;;;;;;7.26;100.00;101530.47;5024056;28;20034;-76
2024/03/20 02:10:20;;;;;;;17.67;7.60;;;;;;;7.24;100.00;101529.75;5029609;28;20037;-75
2024/03/20 02:12:48;;;;;;;14.48;7.57;;;;;;;7.21;100.00;101529.06;5025812;28;20496;-75
2024/03/20 02:15:13;;;;;;;14.55;7.07;;;;;;;7.19;100.00;101536.06;5024983;28;20043;-75
2024/03/20 02:17:40;;;;;;;17.25;7.13;;;;;;;7.17;100.00;101532.78;5026341;28;20034;-75
2024/03/20 02:20:08;;;;;;;12.50;7.22;;;;;;;7.17;100.00;101534.56;5027277;28;20049;-75
2024/03/20 02:22:43;;;;;;;17.13;7.32;;;;;;;7.16;100.00;101538.09;5029889;28;20041;-75
2024/03/20 02:25:10;;;;;;;12.70;6.72;;;;;;;7.15;100.00;101536.44;5021270;28;20040;-75
2024/03/20 02:27:36;;;;;;;13.52;6.85;;;;;;;7.13;100.00;101530.56;5022015;28;20045;-76
2024/03/20 02:30:09;;;;;;;13.45;7.45;;;;;;;7.10;100.00;101533.38;5026199;28;20029;-75
2024/03/20 02:32:36;;;;;;;13.95;7.60;;;;;;;7.09;100.00;101535.13;5040293;28;20040;-76
2024/03/20 02:35:02;;;;;;;13.68;7.20;;;;;;;7.07;100.00;101537.00;5026662;28;20033;-75
2024/03/20 02:37:27;;;;;;;12.82;6.40;;;;;;;7.04;100.00;101537.22;5009246;28;20038;-75
2024/03/20 02:39:53;;;;;;;13.20;7.22;;;;;;;7.02;100.00;101533.94;5059059;28;20087;-75
2024/03/20 02:42:18;;;;;;;15.82;7.30;;;;;;;7.00;100.00;101535.81;5026983;28;20037;-75
2024/03/20 02:44:44;;;;;;;18.13;7.65;;;;;;;6.99;100.00;101540.16;5029029;28;20033;-76
2024/03/20 02:47:10;;;;;;;11.90;6.78;;;;;;;6.95;100.00;101533.59;5027589;28;20053;-75
2024/03/20 02:49:35;;;;;;;18.02;7.22;;;;;;;6.95;100.00;101535.34;5014169;28;20036;-75
2024/03/20 02:52:01;;;;;;;12.50;7.15;;;;;;;6.94;100.00;101537.09;5028845;28;20033;-75
2024/03/20 02:54:26;;;;;;;14.23;7.28;;;;;;;6.93;100.00;101538.03;5030650;28;20025;-75
2024/03/20 02:56:52;;;;;;;13.45;7.00;;;;;;;6.91;100.00;101531.34;5028704;28;20481;-76
2024/03/20 02:59:17;;;;;;;12.88;7.78;;;;;;;6.90;100.00;101540.03;5027881;28;20464;-75
2024/03/20 03:01:43;;;;;;;12.75;6.88;;;;;;;6.87;100.00;101540.25;5023252;28;20028;-75
2024/03/20 03:04:08;;;;;;;16.40;7.68;;;;;;;6.82;100.00;101538.84;5026605;28;20029;-76
2024/03/20 03:06:33;;;;;;;12.88;7.93;;;;;;;6.79;100.00;101533.91;5023556;28;20468;-75
2024/03/20 03:08:59;;;;;;;15.73;6.93;;;;;;;6.78;100.00;101528.84;5030204;28;20048;-75
2024/03/20 03:11:24;;;;;;;12.73;6.70;;;;;;;6.75;100.00;101529.91;5029685;28;20048;-76
2024/03/20 03:13:50;;;;;;;13.10;6.70;;;;;;;6.74;100.00;101525.69;5032004;28;20025;-75
2024/03/20 03:16:15;;;;;;;13.57;7.25;;;;;;;6.73;100.00;101526.63;5030376;28;20403;-75
2024/03/20 03:18:40;;;;;;;15.90;7.47;;;;;;;6.70;100.00;101526.03;5026441;28;20037;-76
2024/03/20 03:21:12;;;;;;;11.43;6.95;;;;;;;6.69;100.00;101527.78;5029598;28;20039;-76
2024/03/20 03:23:38;;;;;;;13.38;7.95;;;;;;;6.67;100.00;101527.09;5028070;28;20490;-75
2024/03/20 03:26:04;;;;;;;13.40;7.50;;;;;;;6.67;100.00;101526.25;5028218;28;20038;-76
2024/03/20 03:28:30;;;;;;;16.80;7.60;;;;;;;6.66;100.00;101524.59;5025694;28;20128;-76
2024/03/20 03:30:55;;;;;;;11.32;6.70;;;;;;;6.62;100.00;101529.97;5028105;28;20037;-75
2024/03/20 03:33:21;;;;;;;16.00;7.85;;;;;;;6.58;100.00;101530.31;5025778;28;20037;-76
2024/03/20 03:35:46;;;;;;;15.60;7.38;;;;;;;6.56;100.00;101535.59;5031549;28;20034;-76
2024/03/20 03:38:11;;;;;;;15.13;7.47;;;;;;;6.56;100.00;101529.63;5028320;28;20107;-76
2024/03/20 03:40:37;;;;;;;13.38;7.10;;;;;;;6.53;100.00;101525.50;5028444;28;20033;-75
2024/03/20 03:43:02;;;;;;;12.93;7.25;;;;;;;6.51;100.00;101532.50;5025767;28;20029;-75
2024/03/20 03:45:28;;;;;;;19.55;7.65;;;;;;;6.48;100.00;101524.19;5030867;28;20029;-75
2024/03/20 03:47:53;;;;;;;12.00;7.35;;;;;;;6.41;100.00;101526.41;5028949;28;20037;-76
2024/03/20 03:50:19;;;;;;;12.23;7.72;;;;;;;6.39;100.00;101530.84;5027450;28;20025;-75
2024/03/20 03:52:44;;;;;;;14.40;7.47;;;;;;;6.38;100.00;101521.47;5027118;28;20044;-75
2024/03/20 03:55:10;;;;;;;13.75;7.63;;;;;;;6.37;100.00;101530.13;5026715;28;20041;-76
2024/03/20 03:57:35;;;;;;;13.60;7.95;;;;;;;6.37;100.00;101523.22;5028520;28;21817;-76
2024/03/20 04:00:01;;;;;;;12.95;7.80;;;;;;;6.37;100.00;101522.41;5043320;28;20584;-76
2024/03/20 04:02:27;;;;;;;14.68;8.13;;;;;;;6.37;100.00;101533.53;5058371;28;20438;-75
2024/03/20 04:04:53;;;;;;;17.13;8.63;;;;;;;6.36;100.00;101529.28;5025163;28;20480;-75
2024/03/20 04:07:18;;;;;;;14.05;8.13;;;;;;;6.32;100.00;101530.44;5022196;28;20095;-75
2024/03/20 04:09:44;;;;;;;16.08;8.70;;;;;;;6.32;100.00;101529.63;5026119;28;20033;-75
2024/03/20 04:12:09;;;;;;;12.63;7.82;;;;;;;6.31;100.00;101528.81;5022687;28;20038;-75
2024/03/20 04:14:35;;;;;;;14.75;8.27;;;;;;;6.31;100.00;101523.66;5008437;28;20117;-75
2024/03/20 04:17:00;;;;;;;14.75;7.95;;;;;;;6.30;100.00;101527.16;5020267;28;20053;-75
2024/03/20 04:19:26;;;;;;;13.77;7.90;;;;;;;6.30;100.00;101529.75;5025280;28;20507;-75
2024/03/20 04:21:55;;;;;;;17.13;7.97;;;;;;;6.29;100.00;101533.25;5040002;28;20033;-75
2024/03/20 04:24:21;;;;;;;12.73;7.70;;;;;;;6.29;100.00;101537.56;5025480;28;20034;-75
2024/03/20 04:26:46;;;;;;;19.88;8.18;;;;;;;6.27;100.00;101529.13;5024784;28;20021;-76
2024/03/20 04:29:11;;;;;;;13.20;7.60;;;;;;;6.25;100.00;101531.81;5023653;28;20615;-76
2024/03/20 04:31:37;;;;;;;20.38;7.75;;;;;;;6.26;100.00;101530.09;5024565;28;20385;-75
2024/03/20 04:34:03;;;;;;;22.70;7.97;;;;;;;6.29;100.00;101538.41;5026084;28;20103;-75
2024/03/20 04:36:28;;;;;;;12.50;7.45;;;;;;;6.27;100.00;101542.81;5028012;28;20038;-75
2024/03/20 04:38:54;;;;;;;14.43;7.85;;;;;;;6.27;100.00;101532.53;5025627;28;20033;-75
2024/03/20 04:41:22;;;;;;;16.05;7.57;;;;;;;6.28;100.00;101541.09;5028759;28;20034;-75
2024/03/20 04:43:49;;;;;;;18.40;8.18;;;;;;;6.27;100.00;101535.09;5026524;28;20072;-74
2024/03/20 04:46:15;;;;;;;15.93;7.45;;;;;;;6.27;100.00;101539.44;5027602;28;20033;-75
2024/03/20 04:48:40;;;;;;;15.23;7.82;;;;;;;6.27;100.00;101544.59;5028524;28;20463;-75
2024/03/20 04:51:06;;;;;;;16.90;8.00;;;;;;;6.27;100.00;101545.41;5030233;28;20068;-75
2024/03/20 04:53:31;;;;;;;14.25;7.35;;;;;;;6.28;100.00;101553.97;5023175;28;20034;-75
2024/03/20 04:55:57;;;;;;;16.45;8.27;;;;;;;6.28;100.00;101552.22;5037979;28;20068;-75
2024/03/20 04:58:23;;;;;;;18.65;7.80;;;;;;;6.30;100.00;101552.09;5027127;28;20044;-75
2024/03/20 05:00:49;;;;;;;12.90;7.45;;;;;;;6.31;100.00;101557.16;5029114;28;20040;-75
2024/03/20 05:03:14;;;;;;;15.02;7.38;;;;;;;6.32;100.00;101558.78;5023664;28;20025;-75
2024/03/20 05:05:41;;;;;;;12.77;6.90;;;;;;;6.32;100.00;101545.91;5023638;28;20034;-75
2024/03/20 05:08:06;;;;;;;11.82;7.35;;;;;;;6.33;100.00;101552.72;5009255;28;20063;-75
2024/03/20 05:10:31;;;;;;;12.20;7.65;;;;;;;6.33;100.00;101546.72;5023021;28;20481;-76
2024/03/20 05:12:57;;;;;;;13.98;7.97;;;;;;;6.33;100.00;101547.56;5027090;28;20037;-75
2024/03/20 05:15:22;;;;;;;13.93;7.50;;;;;;;6.34;100.00;101548.38;5057139;28;20041;-75
2024/03/20 05:17:48;;;;;;;15.68;8.48;;;;;;;6.32;100.00;101542.53;5026556;28;20044;-75
2024/03/20 05:20:15;;;;;;;14.23;7.32;;;;;;;6.33;100.00;101544.16;5027111;28;20602;-75
2024/03/20 05:22:41;;;;;;;13.25;7.28;;;;;;;6.33;100.00;101546.72;5024070;28;20037;-75
2024/03/20 05:25:06;;;;;;;15.48;8.43;;;;;;;6.35;100.00;101552.63;5025235;28;20395;-75
2024/03/20 05:27:32;;;;;;;13.30;7.85;;;;;;;6.34;100.00;101544.03;5029133;28;20497;-75
2024/03/20 05:29:57;;;;;;;17.58;7.95;;;;;;;6.37;100.00;101551.56;5027689;28;20048;-75
2024/03/20 05:32:23;;;;;;;13.15;7.40;;;;;;;6.39;100.00;101549.69;5027127;28;20083;-75
2024/03/20 05:34:48;;;;;;;13.82;8.10;;;;;;;6.40;100.00;101555.66;5027043;28;20037;-75
2024/03/20 05:37:14;;;;;;;20.48;8.20;;;;;;;6.41;100.00;101557.31;5025793;28;20055;-75
2024/03/20 05:39:39;;;;;;;12.32;7.38;;;;;;;6.42;100.00;101558.94;5026129;28;20075;-75
2024/03/20 05:42:05;;;;;;;14.25;7.15;;;;;;;6.43;100.00;101563.19;5025938;28;20033;-75
2024/03/20 05:44:31;;;;;;;12.85;6.85;;;;;;;6.42;100.00;101556.38;5026560;28;20071;-76
2024/03/20 05:46:56;;;;;;;11.93;7.55;;;;;;;6.41;100.00;101558.13;5026877;28;20041;-75
2024/03/20 05:49:22;;;;;;;16.58;8.23;;;;;;;6.41;100.00;101557.31;5025220;28;20519;-75
2024/03/20 05:51:48;;;;;;;11.60;6.78;;;;;;;6.42;100.00;101564.09;5023409;28;20030;-75
2024/03/20 05:54:14;;;;;;;12.80;7.47;;;;;;;6.42;100.00;101564.94;5011997;28;20037;-75
2024/03/20 05:56:40;;;;;;;16.98;8.02;;;;;;;6.45;100.00;101566.47;5023910;28;20041;-75
2024/03/20 05:59:05;;;;;;;13.52;7.50;;;;;;;6.45;100.00;101571.63;5023966;28;20057;-75
2024/03/20 06:01:31;;;;;;;13.93;7.45;;;;;;;6.48;100.00;101570.56;5042522;28;20037;-75
2024/03/20 06:03:57;;;;;;;13.18;7.22;;;;;;;6.50;100.00;101568.69;5018786;28;20038;-75
2024/03/20 06:06:22;;;;;;;13.65;7.55;;;;;;;6.53;100.00;101571.06;5023506;28;20103;-75
2024/03/20 06:08:48;;;;;;;17.80;8.27;;;;;;;6.60;100.00;101564.53;5023099;28;20045;-76
2024/03/20 06:11:14;;;;;;;18.00;7.97;;;;;;;6.75;100.00;101565.19;5026686;28;20087;-75
2024/03/20 06:13:39;;;;;;;15.82;8.38;;;;;;;6.68;100.00;101566.56;5031223;28;20033;-75
2024/03/20 06:16:04;;;;;;;14.50;7.82;;;;;;;6.65;100.00;101569.34;5009815;28;20558;-76
2024/03/20 06:18:30;;;;;;;11.38;7.53;;;;;;;6.66;100.00;101569.25;5021171;28;20041;-75
2024/03/20 06:20:56;;;;;;;15.07;7.72;;;;;;;6.68;100.00;101575.09;5029021;28;20037;-75
2024/03/20 06:23:22;;;;;;;14.70;7.57;;;;;;;6.74;100.00;101576.41;5019486;28;20108;-75
2024/03/20 06:25:47;;;;;;;13.95;7.85;;;;;;;6.79;100.00;101579.47;5026434;28;20476;-76
2024/03/20 06:28:12;;;;;;;14.45;7.57;;;;;;;6.82;100.00;101582.66;5026957;28;20037;-75
2024/03/20 06:30:38;;;;;;;15.00;7.80;;;;;;;6.87;100.00;101584.06;5063038;28;20033;-75
2024/03/20 06:33:05;;;;;;;13.23;7.45;;;;;;;6.90;100.00;101587.25;5026637;28;20038;-75
2024/03/20 06:35:31;;;;;;;14.20;6.97;;;;;;;6.95;100.00;101589.47;5028064;28;20045;-76
2024/03/20 06:37:59;;;;;;;15.65;7.25;;;;;;;6.99;100.00;101583.19;5028252;28;20037;-74
2024/03/20 06:40:32;;;;;;;17.85;8.45;;;;;;;7.09;100.00;101581.56;5028615;28;20480;-74
2024/03/20 06:42:59;;;;;;;;;;;;;;;7.23;100.00;101588.25;5028975;28;20033;-74
2024/03/20 06:45:31;;;;;;;15.90;9.23;;;;;;;7.26;100.00;101589.81;5030093;28;20303;-74
2024/03/20 06:47:56;;;;;;;19.80;9.40;;;;;;;7.43;100.00;101588.53;5030455;28;20041;-74
2024/03/20 06:50:23;;;;;;;16.55;8.20;;;;;;;7.63;100.00;101593.00;5032746;28;20040;-74
2024/03/20 06:52:48;;;;;;;17.05;7.95;;;;;;;7.64;100.00;101593.81;5030221;28;20107;-74
2024/03/20 06:55:14;;;;;;;18.15;8.55;;;;;;;7.75;100.00;101597.22;5029909;28;20487;-74
2024/03/20 06:57:41;;;;;;;14.13;7.65;;;;;;;7.89;100.00;101595.31;5028408;28;20679;-74
2024/03/20 07:00:17;;;;;;;17.40;8.18;;;;;;;8.02;100.00;101588.25;5026969;28;20129;-74
2024/03/20 07:02:43;;;;;;;14.13;7.45;;;;;;;8.21;100.00;101591.97;5025241;28;20045;-74
2024/03/20 07:05:09;;;;;;;20.52;8.93;;;;;;;8.39;100.00;101595.69;5025159;28;20029;-74
2024/03/20 07:07:34;;;;;;;15.52;8.85;;;;;;;8.59;100.00;101601.91;5032946;28;20389;-74
2024/03/20 07:10:00;;;;;;;14.52;7.38;;;;;;;8.84;100.00;101599.91;5025797;28;20022;-74
2024/03/20 07:12:25;;;;;;;14.27;7.90;;;;;;;9.13;100.00;101602.69;5025504;28;20496;-74
2024/03/20 07:14:51;;;;;;;19.65;8.80;;;;;;;9.26;100.00;101598.13;5033495;28;20411;-74
2024/03/20 07:17:16;;;;;;;19.98;6.93;;;;;;;9.40;100.00;101594.41;5029448;28;20045;-74
2024/03/20 07:19:42;;;;;;;24.60;7.13;;;;;;;9.53;100.00;101599.34;5023201;28;20030;-74
2024/03/20 07:22:08;;;;;;;15.02;7.68;;;;;;;9.57;100.00;101607.69;5023764;28;20091;-75
2024/03/20 07:24:33;;;;;;;14.95;7.63;;;;;;;9.62;100.00;101605.53;5028410;28;20035;-75
2024/03/20 07:26:59;;;;;;;16.45;7.95;;;;;;;9.64;100.00;101607.03;5029159;28;20041;-74
2024/03/20 07:29:27;;;;;;;16.35;8.57;;;;;;;9.69;100.00;101601.47;5027700;28;20029;-75
2024/03/20 07:31:52;;;;;;;22.48;8.05;;;;;;;9.67;100.00;101595.59;5028038;28;20106;-75
2024/03/20 07:34:18;;;;;;;23.30;9.90;;;;;;;9.70;100.00;101603.09;5029363;28;20030;-75
2024/03/20 07:36:43;;;;;;;24.30;9.18;;;;;;;9.77;100.00;101606.00;5026456;28;20033;-75
2024/03/20 07:39:09;;;;;;;18.00;9.63;;;;;;;9.96;100.00;101610.41;5026917;28;20053;-75
2024/03/20 07:41:34;;;;;;;20.23;9.57;;;;;;;10.25;100.00;101613.09;5023009;28;20488;-75
2024/03/20 07:43:59;;;;;;;18.75;8.27;;;;;;;10.60;100.00;101610.00;5027704;28;20400;-75
2024/03/20 07:46:25;;;;;;;16.60;7.50;;;;;;;10.97;100.00;101605.91;5026996;28;20663;-75
2024/03/20 07:48:50;;;;;;;19.00;7.80;;;;;;;11.52;98.92;101611.22;5027736;28;20456;-75
2024/03/20 07:51:19;;;;;;;19.30;7.28;;;;;;;11.93;97.30;101603.97;5026858;28;20515;-75
2024/03/20 07:53:45;;;;;;;13.65;6.40;;;;;;;12.28;95.70;101607.56;5023526;28;20030;-75
2024/03/20 07:56:11;;;;;;;16.27;7.55;;;;;;;12.30;92.58;101616.06;5027210;28;20041;-76
2024/03/20 07:58:37;;;;;;;18.50;7.03;;;;;;;12.49;91.93;101617.69;5027539;28;20108;-75
2024/03/20 08:01:06;;;;;;;18.00;7.45;;;;;;;12.44;92.22;101615.53;5012661;28;20033;-75
2024/03/20 08:03:32;;;;;;;10.30;6.65;;;;;;;12.39;90.34;101622.94;5028306;28;20107;-75
2024/03/20 08:06:01;;;;;;;11.48;6.45;;;;;;;12.38;91.31;101620.53;5029898;28;20029;-75
2024/03/20 08:08:26;;;;;;;14.88;7.30;;;;;;;12.62;92.56;101625.09;5026557;28;20052;-75
2024/03/20 08:10:51;;;;;;;16.70;7.82;;;;;;;13.02;91.35;101621.22;5029578;28;20033;-75
2024/03/20 08:13:17;;;;;;;16.35;8.20;;;;;;;13.10;88.63;101620.47;5027111;28;20038;-75
2024/03/20 08:15:42;;;;;;;15.10;7.20;;;;;;;13.25;87.33;101619.72;5027478;28;20040;-75
2024/03/20 08:18:11;;;;;;;15.63;7.90;;;;;;;13.35;85.92;101626.66;5028058;28;20045;-75
2024/03/20 08:20:39;;;;;;;12.32;7.45;;;;;;;13.54;86.04;101626.44;5041951;28;20042;-75
2024/03/20 08:23:05;;;;;;;13.48;6.85;;;;;;;13.76;83.36;101630.28;5026424;28;20068;-75
2024/03/20 08:25:30;;;;;;;14.73;7.20;;;;;;;13.89;83.33;101618.59;5027329;28;20057;-76
2024/03/20 08:27:57;;;;;;;15.25;7.45;;;;;;;14.19;82.67;101625.06;5024231;28;20037;-75
2024/03/20 08:30:23;;;;;;;15.10;7.45;;;;;;;14.09;81.87;101629.56;5028007;28;20097;-75
2024/03/20 08:32:49;;;;;;;13.70;6.63;;;;;;;14.07;82.97;101632.38;5027471;28;20133;-76
2024/03/20 08:35:16;;;;;;;12.27;6.90;;;;;;;13.96;82.25;101632.66;5027719;28;20060;-75
2024/03/20 08:37:45;;;;;;;14.00;7.28;;;;;;;14.11;81.64;101633.66;5034783;28;20049;-75
2024/03/20 08:40:14;;;;;;;15.38;6.63;;;;;;;14.32;82.22;101630.63;5027768;28;20116;-76
2024/03/20 08:42:41;;;;;;;10.57;7.13;;;;;;;14.57;80.67;101626.25;5024587;28;20038;-76
2024/03/20 08:45:08;;;;;;;17.38;7.60;;;;;;;14.87;79.69;101637.03;5023421;28;20037;-76
2024/03/20 08:47:34;;;;;;;17.05;6.82;;;;;;;14.95;79.47;101628.38;5025996;28;20128;-75
2024/03/20 08:50:00;;;;;;;12.88;6.38;;;;;;;15.22;78.57;101629.00;5008350;28;20088;-76
2024/03/20 08:52:25;;;;;;;10.80;6.57;;;;;;;15.23;78.06;101626.22;5025589;28;20049;-75
2024/03/20 08:54:51;;;;;;;13.20;6.28;;;;;;;15.33;76.19;101634.72;5025581;28;20041;-75
2024/03/20 08:57:17;;;;;;;12.70;6.32;;;;;;;15.65;73.20;101633.00;5021905;28;20138;-75
2024/03/20 08:59:43;;;;;;;17.58;6.50;;;;;;;15.74;73.27;101629.34;5028108;28;20036;-75
2024/03/20 09:02:09;;;;;;;17.95;6.90;;;;;;;15.72;74.80;101633.09;5007790;28;20511;-75
2024/03/20 09:04:35;;;;;;;12.55;6.28;;;;;;;15.79;75.54;101630.69;5024651;28;20036;-76
2024/03/20 09:07:00;;;;;;;21.15;7.15;;;;;;;15.92;73.78;101625.72;5043881;28;20049;-76
2024/03/20 09:09:26;;;;;;;14.38;5.72;;;;;;;16.03;73.53;101625.31;5025935;28;20125;-76
2024/03/20 09:11:52;;;;;;;17.35;5.88;;;;;;;16.11;74.61;101627.88;5026253;28;20135;-76
2024/03/20 09:14:18;;;;;;;8.32;5.10;;;;;;;16.05;73.34;101625.97;5022903;28;20104;-76
2024/03/20 09:16:44;;;;;;;26.80;7.40;;;;;;;16.12;72.48;101626.06;5027174;28;20037;-76
2024/03/20 09:19:10;;;;;;;10.15;5.10;;;;;;;16.22;69.74;101620.63;5021738;28;20033;-75
2024/03/20 09:21:38;;;;;;;14.27;5.65;;;;;;;16.23;69.73;101619.63;5024851;28;20034;-76
2024/03/20 09:24:05;;;;;;;11.77;5.32;;;;;;;16.25;70.76;101618.47;5026593;28;20086;-75
2024/03/20 09:26:33;;;;;;;8.23;5.50;;;;;;;16.38;70.45;101615.28;5026169;28;20041;-75
2024/03/20 09:29:00;;;;;;;12.60;5.65;;;;;;;16.42;70.81;101613.13;5026220;28;20042;-74
2024/03/20 09:31:25;;;;;;;11.93;5.82;;;;;;;16.41;72.70;101612.31;5027620;28;20533;-76
2024/03/20 09:33:51;;;;;;;13.85;5.60;;;;;;;16.47;70.59;101611.63;5028567;28;20123;-75
2024/03/20 09:36:16;;;;;;;10.52;5.00;;;;;;;16.67;70.30;101611.13;5026505;28;20056;-76
2024/03/20 09:38:42;;;;;;;16.83;5.30;;;;;;;16.62;71.89;101614.28;5024269;28;20037;-76
2024/03/20 09:41:15;;;;;;;13.27;5.10;;;;;;;16.78;73.02;101615.13;5021623;28;20051;-75
2024/03/20 09:43:40;;;;;;;9.85;5.55;;;;;;;16.87;71.80;101608.88;5025587;28;20084;-75
2024/03/20 09:46:11;;;;;;;16.98;6.13;;;;;;;16.70;72.54;101608.97;5026695;28;20084;-75
2024/03/20 09:48:39;;;;;;;12.40;5.13;;;;;;;16.81;70.30;101602.50;5024140;28;20041;-76
2024/03/20 09:51:04;;;;;;;10.35;4.85;;;;;;;16.80;72.43;101606.13;5026981;28;20052;-75
2024/03/20 09:53:34;;;;;;;11.07;5.43;;;;;;;16.84;73.20;101604.81;5025847;28;20053;-75
2024/03/20 09:56:09;;;;;;;11.55;5.00;;;;;;;16.78;75.20;101607.28;5023948;28;20076;-76
2024/03/20 09:58:36;;;;;;;13.80;4.55;;;;;;;17.13;70.96;101592.72;5026899;28;20961;-76
2024/03/20 10:01:02;;;;;;;7.75;4.47;;;;;;;17.15;67.84;101598.59;5028162;28;20037;-76
2024/03/20 10:03:27;;;;;;;10.90;4.93;;;;;;;17.08;65.99;101589.84;5025387;28;20030;-76
2024/03/20 10:05:53;;;;;;;8.80;5.18;;;;;;;16.88;69.03;101594.78;5024348;28;20033;-76
2024/03/20 10:08:18;;;;;;;12.90;4.90;;;;;;;17.04;65.54;101596.44;5056697;28;20091;-76
2024/03/20 10:10:45;;;;;;;10.50;4.07;;;;;;;16.91;66.09;101590.03;5021428;28;20419;-76
2024/03/20 10:13:13;;;;;;;9.85;4.55;;;;;;;16.99;68.05;101596.13;5026839;28;20103;-76
2024/03/20 10:15:39;;;;;;;8.55;4.28;;;;;;;17.17;65.52;101590.56;5027292;28;20037;-76
2024/03/20 10:18:04;;;;;;;14.55;4.70;;;;;;;17.16;65.29;101584.53;5023221;28;20176;-76
2024/03/20 10:20:30;;;;;;;9.65;4.38;;;;;;;17.29;67.10;101589.94;5008389;28;20041;-75
2024/03/20 10:22:55;;;;;;;9.90;4.45;;;;;;;17.20;64.97;101588.41;5021002;28;20041;-75
2024/03/20 10:25:21;;;;;;;8.10;4.78;;;;;;;17.19;68.53;101585.97;5022490;28;20034;-76
2024/03/20 10:27:49;;;;;;;13.32;4.95;;;;;;;17.30;69.71;101582.88;5025747;28;20113;-76
2024/03/20 10:30:20;;;;;;;17.15;5.00;;;;;;;17.41;65.03;101586.88;5026670;28;20116;-76
2024/03/20 10:32:51;;;;;;;9.88;4.50;;;;;;;17.27;67.69;101576.22;5005917;28;20042;-76
2024/03/20 10:35:23;;;;;;;12.20;3.60;;;;;;;17.52;66.81;101584.59;5025390;28;20033;-76
2024/03/20 10:37:49;;;;;;;16.98;4.45;;;;;;;17.70;63.66;101575.50;5023618;28;20042;-76
2024/03/20 10:40:17;;;;;;;9.40;3.75;;;;;;;17.76;63.98;101577.38;5024416;28;20117;-76
2024/03/20 10:42:45;;;;;;;8.32;3.70;;;;;;;17.71;64.99;101575.31;5025953;28;20045;-76
2024/03/20 10:45:11;;;;;;;10.10;3.67;;;;;;;17.81;63.54;101585.53;5025384;28;20039;-76
2024/03/20 10:47:40;;;;;;;13.13;3.30;;;;;;;17.79;62.88;101577.03;5018262;28;20030;-76
2024/03/20 10:50:18;;;;;;;13.55;3.65;;;;;;;17.88;63.01;101575.16;5019805;28;20665;-76
2024/03/20 10:52:46;;;;;;;12.85;3.55;;;;;;;17.83;63.63;101575.66;5025305;28;20029;-76
2024/03/20 10:55:15;;;;;;;7.90;3.75;;;;;;;17.83;62.64;101577.47;5009914;28;20048;-76
2024/03/20 10:57:41;;;;;;;8.40;3.85;;;;;;;17.71;63.75;101569.28;5024409;28;20093;-76
2024/03/20 11:00:17;;;;;;;9.48;3.60;;;;;;;17.87;62.98;101565.63;5027546;28;20037;-76
2024/03/20 11:02:44;;;;;;;9.30;3.85;;;;;;;17.61;64.75;101571.38;5026691;28;20069;-75
2024/03/20 11:05:41;;;;;;;9.88;3.75;;;;;;;17.90;62.21;101557.41;5029174;28;20033;-75
2024/03/20 11:08:08;;;;;;;12.15;3.40;;;;;;;17.81;61.52;101553.25;5022722;28;20496;-75
2024/03/20 11:10:35;;;;;;;7.63;3.50;;;;;;;17.83;61.83;101556.50;5029851;28;20045;-75
2024/03/20 11:13:01;;;;;;;8.63;3.92;;;;;;;17.87;62.80;101557.75;5027700;28;20038;-76